Time;durP1;ratioP1;P1;durP2;ratioP2;P2;SDS_P1;SDS_P2;PMS_P1;PMS_P2;Temp;Humidity;BMP_temperature;BMP_pressure;BME280_temperature;BME280_humidity;BME280_pressure;Samples;Min_cycle;Max_cycle;Signal;HPM_P1;HPM_P2
2022/04/14 00:01:59;;;;;;;24.30;15.32;;;;;;;10.01;85.52;101924.78;5112287;28;20035;-67
2022/04/14 00:04:24;;;;;;;22.17;15.50;;;;;;;10.01;85.12;101924.78;5108214;28;20156;-74
2022/04/14 00:06:50;;;;;;;24.80;15.70;;;;;;;10.00;84.95;101921.19;5106545;28;20110;-66
2022/04/14 00:09:15;;;;;;;23.63;15.43;;;;;;;9.96;84.67;101919.56;5112536;28;20039;-74
2022/04/14 00:11:41;;;;;;;24.40;15.10;;;;;;;9.96;85.09;101919.56;5099712;28;20032;-67
2022/04/14 00:14:07;;;;;;;23.85;16.05;;;;;;;9.93;85.50;101919.72;5107773;28;20036;-70
2022/04/14 00:16:32;;;;;;;23.67;14.73;;;;;;;9.88;85.25;101913.66;5106326;28;20382;-73
2022/04/14 00:18:57;;;;;;;21.88;14.65;;;;;;;9.86;84.92;101913.75;5099162;28;20043;-67
2022/04/14 00:21:23;;;;;;;21.50;15.07;;;;;;;9.83;84.98;101908.47;5103700;28;20027;-67
2022/04/14 00:23:48;;;;;;;22.63;14.90;;;;;;;9.81;84.89;101907.69;5101225;28;20038;-67
2022/04/14 00:26:14;;;;;;;21.23;14.13;;;;;;;9.81;84.83;101910.41;5097927;28;20064;-71
2022/04/14 00:28:42;;;;;;;23.80;15.80;;;;;;;9.81;85.44;101906.81;5108291;28;20030;-70
2022/04/14 00:31:08;;;;;;;20.52;14.30;;;;;;;9.78;85.27;101901.50;5079389;28;20059;-67
2022/04/14 00:33:33;;;;;;;21.38;14.68;;;;;;;9.80;85.62;101905.91;5094141;28;20075;-74
2022/04/14 00:35:58;;;;;;;19.15;13.60;;;;;;;9.79;85.84;101906.88;5094569;28;20027;-70
2022/04/14 00:38:25;;;;;;;21.52;15.30;;;;;;;9.79;85.98;101897.81;5096466;28;20028;-67
2022/04/14 00:40:52;;;;;;;19.75;14.38;;;;;;;9.79;85.92;101904.16;5112657;27;20020;-72
2022/04/14 00:43:18;;;;;;;18.67;13.82;;;;;;;9.78;85.37;101899.66;5101839;28;20045;-68
2022/04/14 00:45:44;;;;;;;17.67;13.43;;;;;;;9.76;85.57;101901.59;5091297;28;20027;-66
2022/04/14 00:48:09;;;;;;;18.73;14.13;;;;;;;9.75;85.88;101899.84;5104436;28;20395;-68
2022/04/14 00:50:34;;;;;;;19.38;14.52;;;;;;;9.76;86.43;101900.72;5102887;28;20038;-68
2022/04/14 00:53:00;;;;;;;20.42;14.73;;;;;;;9.76;86.45;101900.72;5111306;28;20096;-68
2022/04/14 00:55:25;;;;;;;18.60;13.70;;;;;;;9.73;85.25;101890.88;5105498;28;20036;-69
2022/04/14 00:57:51;;;;;;;22.73;16.88;;;;;;;9.74;88.26;101899.91;5106083;28;20038;-70
2022/04/14 01:00:16;;;;;;;17.02;13.55;;;;;;;9.73;86.27;101896.31;5098482;28;20073;-69
2022/04/14 01:02:41;;;;;;;31.95;19.80;;;;;;;9.75;89.22;101897.13;5098620;28;20036;-74
2022/04/14 01:05:09;;;;;;;27.52;18.45;;;;;;;9.79;89.60;101908.69;5110641;28;20417;-66
2022/04/14 01:07:36;;;;;;;21.75;14.75;;;;;;;9.76;87.66;101906.16;5107863;28;20038;-73
2022/04/14 01:10:02;;;;;;;28.45;18.02;;;;;;;9.76;88.29;101907.03;5089834;28;20441;-68
2022/04/14 01:12:30;;;;;;;24.15;16.80;;;;;;;9.72;87.57;101902.72;5110513;28;20027;-67
2022/04/14 01:14:55;;;;;;;22.60;16.05;;;;;;;9.72;87.04;101897.28;5102271;28;20044;-68
2022/04/14 01:17:20;;;;;;;22.55;16.33;;;;;;;9.73;87.84;101899.03;5103426;28;20460;-68
2022/04/14 01:19:47;;;;;;;22.77;16.10;;;;;;;9.70;87.83;101891.06;5105267;28;20042;-74
2022/04/14 01:22:24;;;;;;;24.05;15.35;;;;;;;9.68;87.55;101898.41;5111011;28;20042;-73
2022/04/14 01:24:50;;;;;;;22.02;15.27;;;;;;;9.69;88.01;101900.16;5121224;27;20067;-70
2022/04/14 01:27:15;;;;;;;25.25;17.52;;;;;;;9.67;88.24;101896.66;5096372;28;20440;-68
2022/04/14 01:29:41;;;;;;;32.15;20.52;;;;;;;9.71;90.08;101896.41;5104517;28;20044;-73
2022/04/14 01:32:06;;;;;;;26.23;17.38;;;;;;;9.69;89.00;101902.88;5108476;28;20406;-70
2022/04/14 01:34:32;;;;;;;26.90;18.52;;;;;;;9.66;88.75;101895.78;5101306;28;20079;-69
2022/04/14 01:37:00;;;;;;;26.55;17.48;;;;;;;9.66;88.74;101906.63;5110197;28;20055;-74
2022/04/14 01:39:26;;;;;;;34.53;20.63;;;;;;;9.70;89.68;101901.94;5102085;28;20108;-75
2022/04/14 01:41:51;;;;;;;31.98;20.98;;;;;;;9.68;89.53;101895.69;5107808;28;20512;-67
2022/04/14 01:44:17;;;;;;;29.38;19.65;;;;;;;9.70;88.97;101891.06;5106220;28;20064;-70
2022/04/14 01:46:43;;;;;;;26.67;19.15;;;;;;;9.70;88.28;101897.38;5108818;28;20115;-67
2022/04/14 01:49:09;;;;;;;34.67;21.17;;;;;;;9.73;89.90;101892.72;5096889;28;20080;-68
2022/04/14 01:51:35;;;;;;;28.98;18.48;;;;;;;9.71;88.03;101898.25;5108781;28;20507;-70
2022/04/14 01:54:01;;;;;;;29.73;20.27;;;;;;;9.70;89.37;101904.66;5110213;28;20035;-66
2022/04/14 01:56:26;;;;;;;29.67;19.13;;;;;;;9.67;87.50;101902.06;5105107;28;20024;-70
2022/04/14 01:58:55;;;;;;;32.22;19.00;;;;;;;9.68;89.41;101907.41;5108167;28;20063;-73
2022/04/14 02:01:21;;;;;;;39.13;22.90;;;;;;;9.73;90.24;101911.75;5109873;28;20469;-70
2022/04/14 02:03:47;;;;;;;30.63;19.98;;;;;;;9.68;89.53;101906.53;5098830;28;20040;-68
2022/04/14 02:06:13;;;;;;;26.55;18.52;;;;;;;9.62;88.96;101909.59;5107698;28;20467;-73
2022/04/14 02:08:39;;;;;;;32.55;19.75;;;;;;;9.62;89.55;101909.59;5109057;28;20047;-68
2022/04/14 02:11:05;;;;;;;25.00;16.77;;;;;;;9.58;88.59;101910.69;5100889;28;20077;-67
2022/04/14 02:13:31;;;;;;;34.08;20.58;;;;;;;9.54;90.05;101911.81;5108766;28;20035;-70
2022/04/14 02:15:57;;;;;;;22.98;15.73;;;;;;;9.52;88.51;101911.91;5104552;28;20038;-74
2022/04/14 02:18:22;;;;;;;28.88;19.25;;;;;;;9.50;89.28;101911.09;5107716;28;20436;-67
2022/04/14 02:20:47;;;;;;;28.17;18.02;;;;;;;9.50;87.93;101907.50;5109012;28;20039;-70
2022/04/14 02:23:13;;;;;;;29.08;17.95;;;;;;;9.52;88.08;101913.75;5108356;28;20042;-68
2022/04/14 02:25:38;;;;;;;25.98;16.95;;;;;;;9.51;88.37;101915.56;5093769;28;20506;-67
2022/04/14 02:28:04;;;;;;;27.00;17.88;;;;;;;9.49;88.33;101917.47;5105530;28;20122;-67
2022/04/14 02:30:29;;;;;;;25.08;15.88;;;;;;;9.49;87.29;101913.88;5102303;28;20067;-69
2022/04/14 02:32:55;;;;;;;24.20;15.48;;;;;;;9.48;86.69;101923.00;5099766;28;20035;-67
2022/04/14 02:35:20;;;;;;;29.75;17.20;;;;;;;9.41;87.33;101915.13;5105130;28;20032;-75
2022/04/14 02:37:46;;;;;;;33.65;18.92;;;;;;;9.44;88.99;101917.72;5110417;28;20080;-68
2022/04/14 02:40:11;;;;;;;28.10;18.33;;;;;;;9.42;88.92;101925.06;5107915;28;20048;-68
2022/04/14 02:42:37;;;;;;;29.90;17.85;;;;;;;9.40;88.42;101920.66;5108148;28;20425;-68
2022/04/14 02:45:02;;;;;;;28.02;17.30;;;;;;;9.39;87.88;101921.63;5098115;28;20044;-70
2022/04/14 02:47:28;;;;;;;23.20;15.57;;;;;;;9.35;87.27;101920.88;5088238;28;20483;-69
2022/04/14 02:49:53;;;;;;;29.63;16.75;;;;;;;9.32;88.02;101923.75;5073285;28;20028;-73
2022/04/14 02:52:18;;;;;;;24.83;17.83;;;;;;;9.27;88.06;101922.22;5108178;28;20031;-70
2022/04/14 02:54:44;;;;;;;26.02;15.93;;;;;;;9.23;87.21;101924.19;5111205;28;20079;-72
2022/04/14 02:57:10;;;;;;;34.90;20.95;;;;;;;9.26;89.83;101928.63;5106410;28;20372;-74
2022/04/14 02:59:36;;;;;;;31.60;19.20;;;;;;;9.26;89.82;101917.75;5111286;28;20491;-68
2022/04/14 03:02:02;;;;;;;44.80;24.08;;;;;;;9.26;91.65;101915.91;5113542;28;20469;-68
2022/04/14 03:04:29;;;;;;;34.78;21.00;;;;;;;9.23;90.39;101916.06;5099703;28;20386;-73
2022/04/14 03:06:55;;;;;;;30.95;19.23;;;;;;;9.17;88.96;101917.25;5112256;28;20024;-70
2022/04/14 03:09:20;;;;;;;37.65;22.90;;;;;;;9.13;90.17;101912.03;5112145;28;20054;-68
2022/04/14 03:11:46;;;;;;;33.92;18.48;;;;;;;9.09;87.94;101915.88;5101639;28;20030;-68
2022/04/14 03:14:11;;;;;;;29.90;19.25;;;;;;;9.07;88.70;101915.06;5118845;27;20028;-67
2022/04/14 03:16:36;;;;;;;31.20;18.77;;;;;;;9.03;89.06;101913.47;5112509;28;20034;-67
2022/04/14 03:19:02;;;;;;;29.35;19.27;;;;;;;9.03;87.33;101913.47;5111191;28;20043;-68
2022/04/14 03:21:27;;;;;;;31.40;19.38;;;;;;;8.94;87.17;101912.94;5111829;28;20020;-74
2022/04/14 03:23:52;;;;;;;30.10;18.15;;;;;;;8.91;86.51;101914.94;5103201;28;20016;-73
2022/04/14 03:26:18;;;;;;;27.23;17.30;;;;;;;8.90;86.84;101924.91;5098621;28;20051;-72
2022/04/14 03:28:43;;;;;;;34.80;21.25;;;;;;;8.92;89.47;101928.44;5111670;28;20035;-71
2022/04/14 03:31:10;;;;;;;30.85;20.25;;;;;;;8.92;88.54;101923.00;5105845;28;20039;-68
2022/04/14 03:33:35;;;;;;;28.70;18.90;;;;;;;8.90;89.61;101921.31;5108065;28;20036;-73
2022/04/14 03:36:01;;;;;;;38.30;21.33;;;;;;;8.88;89.05;101918.69;5112877;28;20562;-74
2022/04/14 03:38:26;;;;;;;31.20;18.65;;;;;;;8.86;88.27;101925.13;5109391;28;20517;-70
2022/04/14 03:40:52;;;;;;;31.23;18.70;;;;;;;8.84;89.29;101929.75;5109590;28;20039;-70
2022/04/14 03:43:17;;;;;;;31.85;20.90;;;;;;;8.80;89.98;101920.88;5113156;28;20050;-68
2022/04/14 03:45:42;;;;;;;31.52;20.10;;;;;;;8.79;89.85;101923.66;5098996;28;20039;-70
2022/04/14 03:48:08;;;;;;;27.17;18.48;;;;;;;8.76;89.39;101921.09;5106635;28;20396;-70
2022/04/14 03:50:33;;;;;;;28.60;18.58;;;;;;;8.71;90.09;101915.88;5092490;28;20032;-67
2022/04/14 03:52:59;;;;;;;31.48;19.25;;;;;;;8.69;89.84;101915.09;5111654;28;20046;-70
2022/04/14 03:55:24;;;;;;;33.35;19.52;;;;;;;8.68;88.84;101916.06;5109046;28;20090;-68
2022/04/14 03:57:50;;;;;;;47.25;18.88;;;;;;;8.67;89.92;101925.13;5111015;28;20046;-70
2022/04/14 04:00:15;;;;;;;43.42;19.60;;;;;;;8.63;89.53;101913.56;5110960;28;20034;-68
2022/04/14 04:02:40;;;;;;;36.33;20.38;;;;;;;8.61;90.57;101914.56;5091122;28;20443;-73
2022/04/14 04:05:06;;;;;;;26.75;18.02;;;;;;;8.58;88.76;101921.03;5099499;28;20027;-73
2022/04/14 04:07:32;;;;;;;41.95;17.35;;;;;;;8.52;88.28;101932.16;5111083;28;20035;-67
2022/04/14 04:09:57;;;;;;;79.43;16.70;;;;;;;8.41;88.65;101938.06;5093045;28;20438;-70
2022/04/14 04:12:23;;;;;;;26.92;15.25;;;;;;;8.33;88.35;101931.19;5104071;28;20402;-68
2022/04/14 04:14:49;;;;;;;38.10;17.58;;;;;;;8.30;88.56;101939.47;5107844;28;20042;-70
2022/04/14 04:17:16;;;;;;;45.80;17.25;;;;;;;8.26;88.83;101940.59;5108135;28;20063;-70
2022/04/14 04:19:43;;;;;;;66.70;19.00;;;;;;;8.22;89.74;101942.53;5110086;28;20134;-74
2022/04/14 04:22:09;;;;;;;87.18;19.20;;;;;;;8.22;89.11;101939.84;5112061;28;20491;-73
2022/04/14 04:24:35;;;;;;;41.67;18.63;;;;;;;8.25;89.80;101945.09;5110750;28;20031;-67
2022/04/14 04:27:00;;;;;;;80.57;19.55;;;;;;;8.24;91.04;101943.34;5099013;28;20039;-73
2022/04/14 04:29:25;;;;;;;32.53;18.10;;;;;;;8.26;90.36;101949.59;5094084;28;20086;-68
2022/04/14 04:31:51;;;;;;;28.17;18.13;;;;;;;8.27;90.02;101945.03;5091486;28;20035;-73
2022/04/14 04:34:17;;;;;;;33.60;17.98;;;;;;;8.32;89.26;101948.44;5092744;28;20028;-70
2022/04/14 04:36:42;;;;;;;31.23;18.50;;;;;;;8.35;89.67;101945.59;5090691;28;20483;-70
2022/04/14 04:39:08;;;;;;;27.27;16.45;;;;;;;8.38;88.72;101948.16;5091124;28;20028;-70
2022/04/14 04:41:33;;;;;;;35.67;17.70;;;;;;;8.37;88.71;101952.72;5090471;28;20078;-73
2022/04/14 04:43:58;;;;;;;47.42;19.27;;;;;;;8.38;88.91;101956.31;5089278;28;20100;-70
2022/04/14 04:46:24;;;;;;;80.95;19.90;;;;;;;8.34;90.66;101958.22;5090460;28;20052;-67
2022/04/14 04:48:49;;;;;;;49.08;19.00;;;;;;;8.32;90.51;101953.84;5091498;28;20031;-70
2022/04/14 04:51:15;;;;;;;38.08;20.75;;;;;;;8.32;90.16;101961.97;5091966;28;20032;-67
2022/04/14 04:53:40;;;;;;;32.13;17.65;;;;;;;8.35;90.17;101961.84;5089582;28;20039;-72
2022/04/14 04:56:06;;;;;;;32.40;19.42;;;;;;;8.36;90.47;101966.31;5090176;28;20024;-68
2022/04/14 04:58:31;;;;;;;30.33;18.90;;;;;;;8.39;90.31;101964.38;5090809;28;20068;-72
2022/04/14 05:00:56;;;;;;;30.75;19.30;;;;;;;8.42;89.56;101969.66;5089314;28;20506;-68
2022/04/14 05:03:22;;;;;;;27.17;18.27;;;;;;;8.44;89.45;101969.59;5089711;28;20040;-73
2022/04/14 05:05:48;;;;;;;34.40;20.13;;;;;;;8.48;89.74;101967.63;5089700;28;20023;-71
2022/04/14 05:08:13;;;;;;;29.92;19.15;;;;;;;8.49;89.25;101961.25;5090847;28;20020;-70
2022/04/14 05:10:38;;;;;;;31.30;18.95;;;;;;;8.49;89.26;101967.56;5072130;28;20047;-73
2022/04/14 05:13:04;;;;;;;38.47;21.38;;;;;;;8.52;90.47;101975.53;5090452;28;20082;-67
2022/04/14 05:15:30;;;;;;;32.75;19.17;;;;;;;8.52;90.16;101971.94;5091009;28;20039;-71
2022/04/14 05:17:55;;;;;;;33.90;19.35;;;;;;;8.52;89.53;101977.38;5091538;28;20031;-68
2022/04/14 05:20:20;;;;;;;37.60;21.10;;;;;;;8.53;90.18;101971.88;5071103;28;20429;-73
2022/04/14 05:22:46;;;;;;;39.17;21.13;;;;;;;8.51;90.63;101976.50;5088376;28;20038;-67
2022/04/14 05:25:11;;;;;;;35.22;19.38;;;;;;;8.48;89.83;101973.91;5094492;28;20050;-67
2022/04/14 05:27:37;;;;;;;30.38;20.13;;;;;;;8.48;89.58;101978.47;5092437;28;20035;-68
2022/04/14 05:30:02;;;;;;;32.80;20.55;;;;;;;8.46;89.69;101983.97;5090959;28;20448;-71
2022/04/14 05:32:28;;;;;;;33.35;19.48;;;;;;;8.48;89.58;101984.75;5088695;28;20043;-73
2022/04/14 05:34:53;;;;;;;40.10;20.13;;;;;;;8.39;89.62;101977.94;5101826;28;20058;-74
2022/04/14 05:37:19;;;;;;;34.95;20.25;;;;;;;8.44;90.47;101991.31;5110738;28;20387;-71
2022/04/14 05:39:44;;;;;;;29.33;20.35;;;;;;;8.45;89.96;101992.19;5105822;28;20071;-67
2022/04/14 05:42:10;;;;;;;31.65;19.15;;;;;;;8.44;90.22;101991.31;5095709;28;20486;-68
2022/04/14 05:44:36;;;;;;;34.50;21.55;;;;;;;8.53;90.02;102009.84;5092416;27;20535;-71
2022/04/14 05:47:01;;;;;;;27.80;18.13;;;;;;;8.58;90.06;101998.78;5101042;28;20123;-71
2022/04/14 05:49:27;;;;;;;36.28;21.77;;;;;;;8.63;90.44;102003.06;5099058;28;20019;-68
2022/04/14 05:51:52;;;;;;;30.40;19.58;;;;;;;8.72;89.89;102001.78;5108849;28;20080;-71
2022/04/14 05:54:17;;;;;;;31.50;19.85;;;;;;;8.82;89.59;102005.81;5106091;28;20093;-71
2022/04/14 05:56:43;;;;;;;31.30;19.02;;;;;;;8.91;88.93;102001.78;5089536;28;20024;-70
2022/04/14 05:59:16;;;;;;;32.15;20.67;;;;;;;9.00;88.90;102009.50;5090609;28;20052;-73
2022/04/14 06:01:42;;;;;;;28.50;19.27;;;;;;;9.08;89.24;102006.41;5090868;28;20027;-68
2022/04/14 06:04:07;;;;;;;31.08;20.30;;;;;;;9.14;88.26;102009.72;5088363;28;20020;-74
2022/04/14 06:06:33;;;;;;;30.70;19.75;;;;;;;9.24;88.75;102020.16;5089191;28;20032;-71
2022/04/14 06:08:58;;;;;;;30.75;21.40;;;;;;;9.27;88.35;102001.84;5089476;28;20181;-71
2022/04/14 06:11:23;;;;;;;33.97;21.65;;;;;;;9.37;88.52;102013.13;5088699;28;20020;-68
2022/04/14 06:13:49;;;;;;;31.83;20.45;;;;;;;9.44;88.60;102017.34;5090060;28;20111;-72
2022/04/14 06:16:14;;;;;;;30.90;20.13;;;;;;;9.49;87.73;102012.56;5087074;28;20365;-73
2022/04/14 06:18:39;;;;;;;30.63;19.83;;;;;;;9.61;88.01;102005.66;5073991;28;20479;-68
2022/04/14 06:21:05;;;;;;;31.90;19.20;;;;;;;9.72;86.69;102008.69;5087891;28;20047;-74
2022/04/14 06:23:30;;;;;;;33.38;22.27;;;;;;;9.74;87.64;102004.03;5089539;28;20027;-74
2022/04/14 06:25:55;;;;;;;27.38;19.23;;;;;;;9.79;86.93;102015.59;5091810;28;20031;-68
2022/04/14 06:28:21;;;;;;;30.35;20.23;;;;;;;9.84;88.45;102013.53;5099696;28;20021;-68
2022/04/14 06:30:46;;;;;;;33.63;21.60;;;;;;;9.93;88.89;102021.22;5092575;28;20135;-70
2022/04/14 06:33:12;;;;;;;33.13;19.98;;;;;;;10.08;87.88;102016.81;5093621;28;20113;-73
2022/04/14 06:35:38;;;;;;;31.40;20.00;;;;;;;10.57;87.57;102013.38;5095845;28;20392;-70
2022/04/14 06:38:03;;;;;;;32.70;21.15;;;;;;;11.28;86.43;102013.06;5094108;28;20046;-67
2022/04/14 06:40:28;;;;;;;30.17;21.30;;;;;;;12.65;81.64;102009.47;5099661;28;20033;-70
2022/04/14 06:42:54;;;;;;;27.83;19.02;;;;;;;13.60;77.12;102014.31;5101223;28;20116;-70
2022/04/14 06:45:19;;;;;;;27.90;19.15;;;;;;;13.58;77.32;102013.53;5109141;28;20020;-69
2022/04/14 06:47:45;;;;;;;32.22;19.75;;;;;;;13.44;78.40;102014.44;5103324;27;20039;-70
2022/04/14 06:50:10;;;;;;;26.33;17.80;;;;;;;13.39;78.02;102017.47;5092760;28;20036;-67
2022/04/14 06:52:39;;;;;;;25.77;18.65;;;;;;;13.39;78.77;102013.88;5092981;28;20483;-73
2022/04/14 06:55:06;;;;;;;28.50;17.45;;;;;;;13.68;76.80;102011.94;5091378;28;20027;-72
2022/04/14 06:57:31;;;;;;;25.70;16.63;;;;;;;13.82;76.18;102013.75;5091344;28;20093;-68
2022/04/14 06:59:57;;;;;;;24.17;16.63;;;;;;;13.83;77.49;102016.38;5092074;28;20044;-68
2022/04/14 07:02:22;;;;;;;26.23;16.92;;;;;;;13.77;77.17;102014.06;5091097;28;20123;-74
2022/04/14 07:04:48;;;;;;;25.13;17.35;;;;;;;13.64;77.56;102021.31;5093263;28;20038;-69
2022/04/14 07:07:14;;;;;;;25.52;16.05;;;;;;;13.51;77.87;102013.94;5092765;28;20020;-71
2022/04/14 07:09:39;;;;;;;25.40;16.55;;;;;;;13.60;78.28;102009.72;5092820;28;20061;-71
2022/04/14 07:12:06;;;;;;;26.25;15.95;;;;;;;13.66;76.77;102009.31;5085602;28;20035;-74
2022/04/14 07:14:32;;;;;;;27.50;16.35;;;;;;;13.65;77.52;102018.47;5092005;28;20035;-68
2022/04/14 07:16:58;;;;;;;23.08;16.58;;;;;;;13.68;77.86;102018.28;5090433;28;20339;-68
2022/04/14 07:19:24;;;;;;;25.83;16.02;;;;;;;13.83;77.88;102018.22;5096193;28;20074;-71
2022/04/14 07:21:49;;;;;;;26.58;16.35;;;;;;;13.65;77.52;102020.34;5091407;28;20052;-70
2022/04/14 07:24:15;;;;;;;28.30;17.02;;;;;;;13.52;78.33;102018.44;5092891;28;20039;-68
2022/04/14 07:26:40;;;;;;;28.23;18.17;;;;;;;13.38;79.53;102021.22;5091724;28;20043;-70
2022/04/14 07:29:05;;;;;;;25.23;17.10;;;;;;;13.33;79.05;102017.88;5090779;28;20422;-70
2022/04/14 07:31:31;;;;;;;31.73;18.45;;;;;;;13.30;80.49;102029.03;5094344;28;20219;-68
2022/04/14 07:33:57;;;;;;;26.75;17.95;;;;;;;13.40;80.36;102029.28;5091136;28;20101;-73
2022/04/14 07:36:23;;;;;;;27.13;19.17;;;;;;;13.78;79.81;102026.75;5100428;28;20032;-70
2022/04/14 07:38:48;;;;;;;28.45;17.00;;;;;;;14.37;77.15;102032.75;5090878;28;20043;-73
2022/04/14 07:41:14;;;;;;;28.17;16.05;;;;;;;14.92;75.43;102041.69;5090524;28;20046;-68
2022/04/14 07:43:39;;;;;;;24.60;15.70;;;;;;;15.38;73.21;102039.22;5090655;28;20505;-69
2022/04/14 07:46:04;;;;;;;20.50;13.27;;;;;;;15.73;72.23;102033.91;5092444;28;20024;-67
2022/04/14 07:48:30;;;;;;;19.77;12.23;;;;;;;15.90;71.82;102034.47;5101127;28;20035;-68
2022/04/14 07:50:55;;;;;;;16.77;11.00;;;;;;;16.01;70.39;102034.53;5111453;28;20030;-74
2022/04/14 07:53:21;;;;;;;17.40;11.07;;;;;;;16.01;70.35;102040.03;5098553;28;20101;-73
2022/04/14 07:55:46;;;;;;;19.58;11.38;;;;;;;16.16;70.41;102044.34;5105299;28;20035;-69
2022/04/14 07:58:11;;;;;;;19.75;11.15;;;;;;;16.22;69.35;102041.13;5109965;28;20079;-75
2022/04/14 08:00:39;;;;;;;18.73;11.13;;;;;;;16.49;69.76;102046.34;5107868;28;20035;-73
2022/04/14 08:03:05;;;;;;;15.60;10.50;;;;;;;16.49;67.91;102046.34;5110945;28;20032;-67
2022/04/14 08:05:39;;;;;;;16.92;10.52;;;;;;;16.72;68.48;102041.81;5099852;28;20040;-68
2022/04/14 08:08:13;;;;;;;18.85;10.57;;;;;;;17.29;69.05;102043.59;5090306;28;20087;-70
2022/04/14 08:10:43;;;;;;;15.80;10.50;;;;;;;17.57;65.30;102044.09;5093407;28;20486;-71
2022/04/14 08:13:09;;;;;;;15.95;9.18;;;;;;;17.95;64.69;102042.78;5095231;28;20039;-68
2022/04/14 08:15:35;;;;;;;18.10;10.75;;;;;;;18.02;61.14;102042.16;5091442;28;20391;-70
2022/04/14 08:18:02;;;;;;;14.05;10.73;;;;;;;17.97;63.88;102046.31;5096184;28;20403;-68
2022/04/14 08:20:27;;;;;;;16.90;10.88;;;;;;;18.06;63.91;102040.00;5089907;28;20043;-68
2022/04/14 08:22:55;;;;;;;16.50;10.70;;;;;;;18.34;64.28;102038.53;5092013;28;20028;-68
2022/04/14 08:25:24;;;;;;;15.80;10.25;;;;;;;18.69;62.03;102040.09;5093239;28;20507;-68
2022/04/14 08:27:51;;;;;;;14.45;10.10;;;;;;;18.98;60.70;102035.66;5094731;28;20028;-71
2022/04/14 08:30:18;;;;;;;17.63;11.07;;;;;;;19.11;60.88;102046.44;5090692;28;20028;-73
2022/04/14 08:32:45;;;;;;;14.90;10.32;;;;;;;19.43;62.03;102046.31;5090590;28;20043;-71
2022/04/14 08:35:11;;;;;;;16.20;8.95;;;;;;;19.36;60.89;102037.72;5103927;28;20100;-68
2022/04/14 08:37:37;;;;;;;15.23;9.15;;;;;;;19.40;61.31;102049.38;5105343;28;20043;-68
2022/04/14 08:40:06;;;;;;;15.20;9.90;;;;;;;19.53;58.97;102029.78;5110676;28;20498;-71
2022/04/14 08:42:37;;;;;;;14.65;8.18;;;;;;;19.42;59.94;102036.28;5095417;28;20070;-70
2022/04/14 08:45:05;;;;;;;11.75;8.20;;;;;;;19.48;58.38;102034.84;5102025;28;20044;-73
2022/04/14 08:47:32;;;;;;;13.05;8.93;;;;;;;19.85;60.38;102036.00;5108817;28;20499;-74
2022/04/14 08:49:58;;;;;;;12.27;8.75;;;;;;;19.81;59.03;102042.81;5092912;28;20047;-71
2022/04/14 08:52:25;;;;;;;13.88;8.52;;;;;;;19.69;58.56;102037.56;5109148;28;20401;-73
2022/04/14 08:54:53;;;;;;;12.15;7.30;;;;;;;19.68;58.22;102039.47;5110013;28;20039;-70
2022/04/14 08:57:18;;;;;;;9.95;6.80;;;;;;;19.53;59.30;102029.78;5106319;28;20061;-73
2022/04/14 08:59:45;;;;;;;10.00;7.15;;;;;;;19.77;58.87;102035.84;5102776;28;20074;-68
2022/04/14 09:02:16;;;;;;;11.65;6.63;;;;;;;19.95;57.69;102036.00;5116747;27;20096;-67
2022/04/14 09:04:43;;;;;;;12.05;7.35;;;;;;;20.26;56.68;102039.53;5111832;27;20028;-68
2022/04/14 09:07:11;;;;;;;10.40;6.78;;;;;;;20.45;57.07;102040.56;5105186;28;20019;-68
2022/04/14 09:09:37;;;;;;;17.08;8.57;;;;;;;20.43;57.15;102040.72;5108699;28;20505;-71
2022/04/14 09:12:04;;;;;;;10.10;8.07;;;;;;;20.45;54.81;102041.44;5103970;28;20122;-68
2022/04/14 09:14:34;;;;;;;10.35;7.05;;;;;;;20.20;53.32;102039.25;5108109;28;20556;-74
2022/04/14 09:16:59;;;;;;;10.20;7.07;;;;;;;20.04;54.69;102037.91;5110948;28;20122;-71
2022/04/14 09:19:27;;;;;;;14.77;8.02;;;;;;;19.69;55.21;102034.81;5109893;27;20082;-67
2022/04/14 09:22:01;;;;;;;14.32;8.60;;;;;;;19.92;57.55;102027.16;5092763;28;20032;-68
2022/04/14 09:24:49;;;;;;;8.57;6.60;;;;;;;20.27;59.15;102026.59;5104560;28;20032;-73
2022/04/14 09:27:23;;;;;;;12.35;6.95;;;;;;;20.42;56.34;102021.47;5099208;28;20032;-73
2022/04/14 09:29:49;;;;;;;12.13;7.07;;;;;;;20.40;53.60;102024.41;5104252;28;20055;-68
2022/04/14 09:32:31;;;;;;;9.68;6.25;;;;;;;;;;5106572;28;20048;-69
2022/04/14 09:35:19;;;;;;;9.43;6.18;;;;;;;20.58;55.73;102019.03;5102774;28;20032;-71
2022/04/14 09:37:45;;;;;;;8.80;6.15;;;;;;;20.64;52.52;102015.69;5110705;28;20059;-71
2022/04/14 09:40:11;;;;;;;9.50;5.88;;;;;;;20.85;51.96;102005.31;5120122;27;20074;-70
2022/04/14 09:42:42;;;;;;;7.88;6.00;;;;;;;20.69;50.79;102005.03;5095669;28;20019;-71
2022/04/14 09:45:34;;;;;;;9.15;6.35;;;;;;;20.85;56.03;102009.97;5100630;28;20040;-68
2022/04/14 09:48:07;;;;;;;10.40;6.13;;;;;;;20.93;54.36;102003.66;5094682;28;20116;-68
2022/04/14 09:50:40;;;;;;;9.20;5.63;;;;;;;21.35;52.53;102002.22;5104822;28;20063;-71
2022/04/14 09:53:08;;;;;;;8.15;5.15;;;;;;;21.41;50.51;102003.50;5103651;28;20035;-67
2022/04/14 09:55:49;;;;;;;8.30;4.53;;;;;;;21.45;51.20;101993.88;5099707;28;20039;-67
2022/04/14 09:58:17;;;;;;;8.10;6.10;;;;;;;21.67;50.14;101987.03;5098386;28;20043;-71
2022/04/14 10:00:50;;;;;;;7.65;4.97;;;;;;;21.71;48.98;101994.00;5095311;28;20032;-67
2022/04/14 10:03:19;;;;;;;7.22;4.53;;;;;;;21.70;48.81;101994.16;5109414;28;20118;-67
2022/04/14 10:05:50;;;;;;;5.68;3.95;;;;;;;22.02;52.59;101988.97;5110494;28;20547;-68
2022/04/14 10:08:16;;;;;;;4.05;1.77;;;;;;;22.00;45.53;101990.13;5107990;28;20123;-68
2022/04/14 10:10:46;;;;;;;4.72;3.00;;;;;;;22.18;46.46;101995.72;5103063;28;20802;-67
2022/04/14 10:13:17;;;;;;;4.18;2.40;;;;;;;22.30;47.91;101986.13;5107952;28;20440;-75
2022/04/14 10:15:47;;;;;;;3.83;2.75;;;;;;;22.17;45.45;101996.75;5105401;28;20040;-71
2022/04/14 10:18:17;;;;;;;4.13;2.72;;;;;;;22.14;44.96;102020.09;5108233;28;20063;-75
2022/04/14 10:20:44;;;;;;;4.50;2.10;;;;;;;22.13;42.86;102015.59;5099379;28;20490;-68
2022/04/14 10:23:14;;;;;;;4.10;1.73;;;;;;;22.13;45.04;102024.78;5107346;28;20463;-69
2022/04/14 10:25:40;;;;;;;4.63;1.92;;;;;;;22.17;45.62;102030.03;5104935;28;20182;-67
2022/04/14 10:28:14;;;;;;;3.50;2.17;;;;;;;22.34;45.37;102032.78;5105737;28;20038;-74
2022/04/14 10:30:48;;;;;;;5.20;3.00;;;;;;;21.85;40.52;102021.16;5089395;28;20036;-70
2022/04/14 10:33:14;;;;;;;8.15;3.13;;;;;;;21.99;48.30;102027.19;5091915;28;20078;-67
2022/04/14 10:35:41;;;;;;;4.28;1.83;;;;;;;22.15;43.55;102024.66;5101946;28;20103;-71
2022/04/14 10:38:13;;;;;;;3.40;1.92;;;;;;;22.36;43.11;102027.09;5099923;28;20032;-75
2022/04/14 10:40:46;;;;;;;4.57;2.80;;;;;;;22.34;44.62;102037.47;5089713;28;20119;-66
2022/04/14 10:43:12;;;;;;;;;;;;;;;22.66;47.73;102034.09;5089724;28;20128;-67
2022/04/14 10:45:50;;;;;;;2.75;2.00;;;;;;;22.61;45.34;102033.69;5095949;28;19912;-66
2022/04/14 10:48:35;;;;;;;2.10;1.65;;;;;;;22.69;46.03;102024.59;5096756;28;20031;-70
2022/04/14 10:51:17;;;;;;;4.82;2.47;;;;;;;22.94;46.50;102033.97;5088954;28;20047;-68
2022/04/14 10:54:00;;;;;;;4.32;2.53;;;;;;;23.15;45.44;102031.69;5087869;28;20040;-71
2022/04/14 10:56:41;;;;;;;4.82;2.50;;;;;;;23.20;45.18;102025.66;5088955;28;20040;-71
2022/04/14 10:59:11;;;;;;;3.55;2.58;;;;;;;23.00;41.08;102016.69;5086526;28;20076;-67
2022/04/14 11:01:51;;;;;;;3.78;2.00;;;;;;;23.23;44.16;102026.19;5089480;28;20043;-71
2022/04/14 11:04:32;;;;;;;4.28;2.50;;;;;;;23.29;43.20;102017.19;5089250;28;20083;-66
2022/04/14 11:07:07;;;;;;;3.13;2.20;;;;;;;23.43;42.24;102024.91;5089117;28;20020;-67
2022/04/14 11:09:38;;;;;;;5.30;1.95;;;;;;;23.65;42.61;102020.69;5087801;28;20316;-68
2022/04/14 11:12:04;;;;;;;4.32;2.47;;;;;;;23.76;40.73;102013.06;5093714;28;20122;-67
2022/04/14 11:14:34;;;;;;;5.78;2.88;;;;;;;23.66;42.03;102016.84;5091531;28;20103;-76
2022/04/14 11:17:00;;;;;;;3.30;2.13;;;;;;;23.96;42.99;102011.72;5092287;28;20506;-68